Time;durP1;ratioP1;P1;durP2;ratioP2;P2;SDS_P1;SDS_P2;PMS_P1;PMS_P2;Temp;Humidity;BMP_temperature;BMP_pressure;BME280_temperature;BME280_humidity;BME280_pressure;Samples;Min_cycle;Max_cycle;Signal;HPM_P1;HPM_P2
2023/07/29 00:04:12;;;;;;;11.70;6.60;;;;;;;16.55;100.00;99823.41;223722;1266;139967;-88
2023/07/29 00:09:12;;;;;;;15.50;6.80;;;;;;;16.56;100.00;99822.44;223104;1270;144028;-88
2023/07/29 00:14:12;;;;;;;11.40;6.40;;;;;;;16.56;100.00;99818.70;223825;1267;96543;-88
2023/07/29 00:19:15;;;;;;;13.50;7.10;;;;;;;16.57;100.00;99821.92;223153;1267;141931;-88
2023/07/29 00:24:16;;;;;;;13.70;6.70;;;;;;;16.58;100.00;99823.17;223746;1267;139529;-88
2023/07/29 00:29:16;;;;;;;10.40;6.60;;;;;;;16.58;100.00;99815.86;223201;1268;141328;-88
2023/07/29 00:34:19;;;;;;;8.90;5.70;;;;;;;16.59;100.00;99808.79;223718;1267;139646;-88
2023/07/29 00:39:19;;;;;;;9.20;6.20;;;;;;;16.60;100.00;99802.65;223025;1268;141669;-88
2023/07/29 00:44:20;;;;;;;9.70;5.90;;;;;;;16.61;100.00;99803.59;223844;1267;95932;-88
2023/07/29 00:49:21;;;;;;;11.70;6.10;;;;;;;16.60;100.00;99807.48;223198;1267;161151;-88
2023/07/29 00:54:22;;;;;;;8.60;6.10;;;;;;;16.57;100.00;99814.71;223758;1267;139163;-88
2023/07/29 00:59:22;;;;;;;8.90;5.90;;;;;;;16.50;100.00;99819.63;223187;1267;142253;-88
2023/07/29 01:04:23;;;;;;;11.90;6.50;;;;;;;16.45;100.00;99815.39;223697;1266;139010;-88
2023/07/29 01:09:42;;;;;;;9.10;5.80;;;;;;;16.39;100.00;99814.16;223173;1266;140833;-88
2023/07/29 01:15:14;;;;;;;10.30;6.40;;;;;;;16.32;100.00;99815.64;223641;1268;138811;-88
2023/07/29 01:20:15;;;;;;;9.40;6.20;;;;;;;16.26;100.00;99811.56;223229;1267;141769;-88
2023/07/29 01:25:16;;;;;;;9.40;5.00;;;;;;;16.18;100.00;99807.54;223722;1266;138886;-89
2023/07/29 01:30:17;;;;;;;13.80;6.90;;;;;;;16.13;100.00;99812.65;223180;1266;142704;-89
2023/07/29 01:35:21;;;;;;;12.30;6.80;;;;;;;16.09;100.00;99812.50;223701;1266;139632;-88
2023/07/29 01:40:28;;;;;;;10.40;5.10;;;;;;;16.03;100.00;99819.59;223145;1267;142574;-89
2023/07/29 01:45:31;;;;;;;;;;;;;;;15.97;100.00;99817.11;223625;1266;139253;-89
2023/07/29 01:50:32;;;;;;;12.70;6.00;;;;;;;15.91;100.00;99815.96;223301;1267;128349;-89
2023/07/29 01:55:32;;;;;;;13.70;8.10;;;;;;;15.87;100.00;99818.11;223692;1267;139397;-89
2023/07/29 02:00:33;;;;;;;14.10;8.20;;;;;;;15.87;100.00;99818.81;223148;1267;141576;-89
2023/07/29 02:05:33;;;;;;;12.00;6.70;;;;;;;15.86;100.00;99815.65;223657;1266;140653;-89
2023/07/29 02:10:34;;;;;;;13.60;7.60;;;;;;;15.84;100.00;99812.05;223142;1267;142281;-89
2023/07/29 02:15:34;;;;;;;10.20;6.80;;;;;;;15.82;100.00;99813.85;223731;1267;139906;-89
2023/07/29 02:20:35;;;;;;;9.90;6.70;;;;;;;15.80;100.00;99811.59;223257;1266;141106;-89
2023/07/29 02:25:36;;;;;;;13.80;8.00;;;;;;;15.76;100.00;99809.76;223694;1267;138601;-88
2023/07/29 02:30:40;;;;;;;18.50;8.60;;;;;;;15.73;100.00;99811.48;223092;1271;142408;-88
2023/07/29 02:35:41;;;;;;;28.70;10.50;;;;;;;15.70;100.00;99819.23;223648;1267;139176;-89
2023/07/29 02:40:42;;;;;;;16.40;9.70;;;;;;;15.67;100.00;99818.74;223149;1267;142754;-89
2023/07/29 02:45:42;;;;;;;13.80;8.70;;;;;;;15.62;100.00;99822.56;223705;1270;139187;-88
2023/07/29 02:50:43;;;;;;;14.90;8.50;;;;;;;15.56;100.00;99818.48;223157;1267;141975;-88
2023/07/29 02:55:43;;;;;;;14.70;7.90;;;;;;;15.51;100.00;99819.21;223783;1267;97234;-88
2023/07/29 03:00:43;;;;;;;12.80;7.00;;;;;;;15.46;100.00;99830.16;223112;1267;141869;-88
2023/07/29 03:05:44;;;;;;;16.80;9.40;;;;;;;15.43;100.00;99842.02;223720;1266;139853;-88
2023/07/29 03:10:44;;;;;;;16.00;9.30;;;;;;;15.44;100.00;99848.56;223181;1267;140858;-88
2023/07/29 03:15:45;;;;;;;12.80;7.70;;;;;;;15.42;100.00;99847.97;223680;1267;139441;-88
2023/07/29 03:20:45;;;;;;;14.90;8.40;;;;;;;15.41;100.00;99840.22;223133;1271;142576;-87
2023/07/29 03:25:48;;;;;;;14.30;8.10;;;;;;;15.43;100.00;99839.71;223724;1268;96049;-88
2023/07/29 03:30:49;;;;;;;17.10;9.60;;;;;;;15.45;100.00;99848.16;223147;1267;142148;-88
2023/07/29 03:35:49;;;;;;;11.70;6.80;;;;;;;15.51;100.00;99848.13;223696;1267;139253;-88
2023/07/29 03:40:50;;;;;;;9.70;6.30;;;;;;;15.57;100.00;99853.64;223174;1267;140995;-88
2023/07/29 03:45:51;;;;;;;10.30;7.00;;;;;;;15.64;100.00;99855.88;223610;1270;138751;-88
2023/07/29 03:50:51;;;;;;;10.80;7.70;;;;;;;15.72;100.00;99858.27;223131;1270;142944;-88
2023/07/29 03:55:51;;;;;;;12.80;7.50;;;;;;;15.82;100.00;99860.63;223743;1267;95928;-87
2023/07/29 04:00:52;;;;;;;11.50;8.70;;;;;;;15.92;100.00;99859.94;223140;1268;141270;-88
2023/07/29 04:05:52;;;;;;;8.80;6.20;;;;;;;16.03;100.00;99859.09;223659;1267;139626;-87
2023/07/29 04:10:53;;;;;;;11.40;8.70;;;;;;;16.15;100.00;99858.79;223170;1267;140907;-87
2023/07/29 04:15:53;;;;;;;13.00;8.00;;;;;;;16.25;100.00;99854.35;223678;1266;139129;-88
2023/07/29 04:20:54;;;;;;;11.40;8.40;;;;;;;16.37;100.00;99853.30;223140;1267;141901;-88
2023/07/29 04:25:54;;;;;;;13.20;9.50;;;;;;;16.49;100.00;99856.55;223792;1271;95897;-87
2023/07/29 04:30:55;;;;;;;11.70;9.30;;;;;;;16.60;100.00;99861.40;223149;1268;140703;-88
2023/07/29 04:35:55;;;;;;;11.70;9.00;;;;;;;16.70;100.00;99859.41;223631;1267;139637;-88
2023/07/29 04:40:56;;;;;;;12.10;8.80;;;;;;;16.79;100.00;99856.13;223145;1267;142047;-88
2023/07/29 04:45:56;;;;;;;16.50;9.90;;;;;;;16.85;100.00;99852.32;223709;1267;139725;-88
2023/07/29 04:50:57;;;;;;;14.60;10.20;;;;;;;16.91;100.00;99854.64;223155;1267;141615;-88
2023/07/29 04:55:57;;;;;;;11.50;8.80;;;;;;;16.96;100.00;99856.89;223793;1267;95674;-88
2023/07/29 05:01:00;;;;;;;13.60;9.80;;;;;;;17.00;100.00;99856.80;223136;1267;141022;-87
2023/07/29 05:06:00;;;;;;;14.00;11.30;;;;;;;17.08;100.00;99863.99;223644;1267;139026;-87
2023/07/29 05:11:01;;;;;;;15.10;11.50;;;;;;;17.17;100.00;99860.92;223156;1267;141350;-87
2023/07/29 05:16:01;;;;;;;14.40;11.70;;;;;;;17.27;100.00;99864.17;223679;1267;140539;-87
2023/07/29 05:21:02;;;;;;;18.50;14.40;;;;;;;17.36;100.00;99862.35;223140;1267;143363;-87
2023/07/29 05:26:02;;;;;;;16.60;13.80;;;;;;;17.49;100.00;99859.83;223747;1267;95888;-87
2023/07/29 05:31:03;;;;;;;20.30;15.80;;;;;;;17.62;100.00;99857.40;223112;1267;141283;-87
2023/07/29 05:36:03;;;;;;;24.90;18.50;;;;;;;17.85;100.00;99858.19;223692;1267;138949;-87
2023/07/29 05:41:05;;;;;;;24.40;17.80;;;;;;;18.14;100.00;99866.37;223153;1267;141879;-87
2023/07/29 05:46:05;;;;;;;26.00;19.50;;;;;;;18.56;100.00;99873.02;223675;1267;139318;-87
2023/07/29 05:51:06;;;;;;;22.00;16.60;;;;;;;18.95;100.00;99876.70;223109;1266;142097;-89
2023/07/29 05:56:06;;;;;;;21.20;15.30;;;;;;;19.32;100.00;99874.23;223775;1266;95894;-88
2023/07/29 06:01:07;;;;;;;18.20;14.60;;;;;;;19.59;100.00;99877.52;223159;1267;140911;-89
2023/07/29 06:06:07;;;;;;;17.30;13.70;;;;;;;19.95;100.00;99874.42;223697;1266;139847;-89
2023/07/29 06:11:08;;;;;;;16.90;13.10;;;;;;;20.38;100.00;99874.38;223130;1266;141046;-89
2023/07/29 06:16:08;;;;;;;18.10;13.40;;;;;;;20.85;100.00;99872.81;223698;1266;139702;-88
2023/07/29 06:21:12;;;;;;;17.50;11.80;;;;;;;21.20;100.00;99873.00;223181;1266;141136;-89
2023/07/29 06:26:12;;;;;;;15.80;12.20;;;;;;;21.59;100.00;99872.23;223800;1266;95824;-87
2023/07/29 06:31:12;;;;;;;14.10;11.00;;;;;;;21.85;100.00;99872.89;223162;1266;142511;-87
2023/07/29 06:36:13;;;;;;;13.00;9.70;;;;;;;22.05;100.00;99875.13;223701;1266;139627;-88
2023/07/29 06:41:13;;;;;;;13.60;9.40;;;;;;;22.35;100.00;99875.13;223151;1266;141971;-89
2023/07/29 06:46:14;;;;;;;16.40;11.80;;;;;;;22.67;100.00;99873.34;223688;1266;140257;-87
2023/07/29 06:51:14;;;;;;;13.10;9.60;;;;;;;22.90;100.00;99873.42;223140;1267;142206;-88
2023/07/29 06:56:15;;;;;;;12.60;9.30;;;;;;;23.15;100.00;99865.70;223816;1266;96000;-87
2023/07/29 07:01:15;;;;;;;13.20;9.10;;;;;;;23.58;100.00;99864.06;223128;1266;140422;-87
2023/07/29 07:06:16;;;;;;;11.90;8.80;;;;;;;23.95;100.00;99863.89;223694;1266;141142;-87
2023/07/29 07:11:16;;;;;;;12.00;8.90;;;;;;;24.23;100.00;99861.05;223109;1267;141670;-86
2023/07/29 07:16:17;;;;;;;11.00;7.20;;;;;;;24.28;97.67;99863.02;223660;1266;139332;-85
2023/07/29 07:21:17;;;;;;;15.80;8.30;;;;;;;24.11;96.60;99859.01;223109;1267;141104;-87
2023/07/29 07:26:18;;;;;;;14.10;8.70;;;;;;;23.99;97.10;99856.55;223791;1267;95852;-88
2023/07/29 07:31:18;;;;;;;15.10;7.80;;;;;;;23.99;98.58;99849.88;223123;1266;142004;-87
2023/07/29 07:36:19;;;;;;;16.30;8.30;;;;;;;24.21;98.87;99854.54;223683;1267;138802;-86
2023/07/29 07:41:19;;;;;;;15.10;9.10;;;;;;;24.34;98.25;99847.98;223099;1267;141908;-86
2023/07/29 07:46:20;;;;;;;14.80;9.20;;;;;;;24.36;96.23;99852.11;223677;1266;139231;-87
2023/07/29 07:51:20;;;;;;;10.10;6.40;;;;;;;24.31;95.68;99852.46;223126;1266;142311;-85
2023/07/29 07:56:21;;;;;;;9.60;6.40;;;;;;;24.36;95.52;99852.61;223754;1266;95928;-86
2023/07/29 08:01:21;;;;;;;10.10;6.00;;;;;;;24.42;94.82;99849.70;223069;1267;140788;-87
2023/07/29 08:06:22;;;;;;;8.90;5.40;;;;;;;24.34;92.67;99845.27;223650;1267;139818;-86
2023/07/29 08:11:23;;;;;;;9.00;5.20;;;;;;;24.40;93.34;99834.60;223157;1266;140741;-86
2023/07/29 08:16:23;;;;;;;9.10;5.20;;;;;;;24.70;94.72;99829.09;223688;1266;138895;-87
2023/07/29 08:21:24;;;;;;;5.70;3.90;;;;;;;25.16;92.43;99823.50;223077;1267;140724;-88
2023/07/29 08:26:24;;;;;;;7.80;5.00;;;;;;;25.55;90.65;99821.85;223814;1266;95994;-89
2023/07/29 08:31:25;;;;;;;6.70;3.90;;;;;;;26.13;89.56;99822.05;223132;1266;141476;-89
2023/07/29 08:36:26;;;;;;;6.20;4.10;;;;;;;26.83;85.85;99825.94;223636;1266;138467;-88
2023/07/29 08:41:31;;;;;;;5.70;3.70;;;;;;;27.17;80.26;99815.61;223069;1266;140339;-87
2023/07/29 08:46:32;;;;;;;7.70;4.10;;;;;;;27.58;80.37;99810.60;223640;1267;138968;-87
2023/07/29 08:51:34;;;;;;;5.90;4.20;;;;;;;28.25;78.52;99807.06;223108;1266;140619;-88
2023/07/29 08:56:35;;;;;;;4.40;3.30;;;;;;;28.67;73.99;99808.61;223803;1266;95887;-88
2023/07/29 09:01:35;;;;;;;5.20;3.60;;;;;;;29.03;73.35;99809.51;223175;1266;140963;-88
2023/07/29 09:06:38;;;;;;;7.10;4.40;;;;;;;29.74;73.34;99807.41;223742;1266;137926;-87
2023/07/29 09:11:38;;;;;;;6.40;3.80;;;;;;;30.40;69.74;99803.36;223083;1266;141510;-88
2023/07/29 09:16:39;;;;;;;6.70;4.40;;;;;;;31.01;68.16;99801.27;223721;1266;138628;-85
2023/07/29 09:21:40;;;;;;;11.50;4.80;;;;;;;31.58;64.41;99801.87;223169;1267;139655;-83
2023/07/29 09:26:48;;;;;;;6.50;4.40;;;;;;;31.74;61.83;99794.92;223752;1266;138676;-89
2023/07/29 09:31:49;;;;;;;10.60;4.60;;;;;;;32.16;62.69;99785.49;223178;1267;141113;-85
2023/07/29 09:36:51;;;;;;;6.80;4.00;;;;;;;32.52;59.41;99787.17;223715;1267;138947;-89
2023/07/29 09:41:52;;;;;;;6.70;4.30;;;;;;;32.93;59.28;99781.23;223002;1267;306321;-88
2023/07/29 09:46:52;;;;;;;6.00;3.30;;;;;;;32.99;55.82;99783.36;223758;1266;138807;-86
2023/07/29 09:51:55;;;;;;;8.30;4.30;;;;;;;32.81;53.65;99786.06;223200;1266;141294;-86
2023/07/29 09:56:56;;;;;;;5.60;3.60;;;;;;;32.26;54.31;99785.06;223712;1266;138961;-89
2023/07/29 10:01:57;;;;;;;7.60;3.60;;;;;;;32.10;53.94;99777.55;223282;1267;140482;-87
2023/07/29 10:06:59;;;;;;;5.10;3.30;;;;;;;31.90;53.50;99773.28;223749;1266;137769;-88
2023/07/29 10:12:00;;;;;;;5.40;3.50;;;;;;;32.11;53.74;99762.17;223205;1266;140056;-86
2023/07/29 10:17:01;;;;;;;7.00;3.90;;;;;;;32.49;53.52;99746.60;223636;1266;138865;-89
2023/07/29 10:22:03;;;;;;;6.30;3.40;;;;;;;32.38;51.37;99746.41;223070;1266;139910;-88
2023/07/29 10:27:05;;;;;;;5.20;3.40;;;;;;;32.20;51.29;99737.80;223648;1266;138757;-88
2023/07/29 10:32:08;;;;;;;5.40;3.60;;;;;;;32.19;50.67;99728.55;223316;1267;139833;-89
2023/07/29 10:37:09;;;;;;;7.10;3.80;;;;;;;32.09;50.51;99719.17;223700;1267;138213;-88
2023/07/29 10:42:09;;;;;;;5.70;3.10;;;;;;;32.03;51.84;99709.99;223211;1268;140576;-89
2023/07/29 10:47:13;;;;;;;7.70;3.40;;;;;;;32.53;52.64;99708.41;223687;1267;137961;-88
2023/07/29 10:52:28;;;;;;;5.50;3.50;;;;;;;32.42;50.20;99708.45;223044;1267;140982;-89
2023/07/29 10:57:36;;;;;;;6.20;3.70;;;;;;;32.26;51.66;99702.81;223611;1266;138307;-89
2023/07/29 11:02:38;;;;;;;7.10;3.40;;;;;;;32.26;51.00;99693.84;223153;1267;139463;-86
2023/07/29 11:07:47;;;;;;;6.00;3.40;;;;;;;32.06;49.96;99690.98;223782;1267;95712;-88
2023/07/29 11:12:51;;;;;;;5.20;3.50;;;;;;;32.16;50.64;99683.20;223175;1267;139452;-90
2023/07/29 11:17:54;;;;;;;4.60;3.30;;;;;;;32.40;50.85;99673.78;223689;1267;138438;-87
2023/07/29 11:22:56;;;;;;;6.40;4.10;;;;;;;32.63;49.88;99668.18;223159;1266;140454;-89
2023/07/29 11:27:58;;;;;;;7.30;3.80;;;;;;;32.27;48.46;99665.66;223757;1266;138144;-91
2023/07/29 11:32:59;;;;;;;5.80;3.40;;;;;;;31.77;49.12;99657.92;223206;1267;140505;-88
2023/07/29 11:37:59;;;;;;;7.20;3.90;;;;;;;31.71;50.53;99650.40;223886;1267;96050;-87
2023/07/29 11:43:00;;;;;;;5.60;3.90;;;;;;;31.75;50.26;99638.52;223142;1267;139877;-89
2023/07/29 11:48:03;;;;;;;4.60;3.10;;;;;;;31.68;49.78;99634.98;223748;1267;137826;-88
2023/07/29 11:53:05;;;;;;;5.80;3.20;;;;;;;31.63;50.72;99626.11;223201;1266;140460;-87
2023/07/29 11:58:05;;;;;;;7.30;3.40;;;;;;;31.97;50.03;99613.77;223723;1266;137992;-86
2023/07/29 12:03:08;;;;;;;7.20;3.10;;;;;;;32.05;50.15;99611.41;223180;1266;139987;-85
2023/07/29 12:08:09;;;;;;;4.30;2.60;;;;;;;32.16;48.82;99602.38;223877;1267;96036;-86
2023/07/29 12:13:09;;;;;;;8.40;3.10;;;;;;;31.92;47.66;99599.31;223219;1267;140661;-88
2023/07/29 12:18:11;;;;;;;4.50;2.80;;;;;;;31.69;48.54;99590.52;223659;1267;137811;-88
2023/07/29 12:23:12;;;;;;;4.10;2.70;;;;;;;31.60;48.57;99594.80;223212;1266;139615;-89
2023/07/29 12:28:13;;;;;;;7.70;2.80;;;;;;;31.35;49.06;99584.11;223647;1267;138236;-91
2023/07/29 12:33:33;;;;;;;4.50;2.70;;;;;;;31.03;50.15;99570.07;223191;1268;141238;-88
2023/07/29 12:38:35;;;;;;;4.90;2.80;;;;;;;31.16;50.95;99560.59;223804;1266;102808;-90
2023/07/29 12:43:36;;;;;;;7.10;2.60;;;;;;;31.23;49.80;99548.31;223222;1267;140100;-87
2023/07/29 12:48:36;;;;;;;5.50;2.60;;;;;;;31.02;50.49;99540.79;223693;1267;138245;-89
2023/07/29 12:53:37;;;;;;;4.20;2.90;;;;;;;30.89;50.46;99534.73;223186;1266;139746;-86
2023/07/29 12:58:37;;;;;;;5.20;2.70;;;;;;;30.76;50.76;99531.59;223734;1266;138534;-87
2023/07/29 13:03:38;;;;;;;3.80;2.30;;;;;;;30.46;51.41;99529.73;223093;1267;139420;-87
2023/07/29 13:08:38;;;;;;;5.00;2.50;;;;;;;30.24;51.32;99535.24;223695;1267;138027;-88
2023/07/29 13:13:39;;;;;;;4.30;2.20;;;;;;;29.95;52.16;99535.52;223328;1267;140399;-86
2023/07/29 13:18:40;;;;;;;3.40;2.50;;;;;;;29.90;52.62;99525.81;223736;1266;138166;-88
2023/07/29 13:23:41;;;;;;;3.90;2.20;;;;;;;29.78;52.78;99519.28;223181;1266;140352;-87
2023/07/29 13:28:41;;;;;;;4.20;2.40;;;;;;;29.79;53.47;99508.13;223756;1266;138720;-87
2023/07/29 13:33:42;;;;;;;5.00;2.20;;;;;;;29.88;53.95;99501.33;223220;1267;139590;-89
2023/07/29 13:38:42;;;;;;;6.00;2.50;;;;;;;29.82;53.13;99494.44;223734;1267;138230;-87
2023/07/29 13:43:43;;;;;;;4.60;2.40;;;;;;;29.73;53.35;99492.41;223290;1267;140024;-88
2023/07/29 13:48:43;;;;;;;4.00;2.30;;;;;;;29.54;54.18;99497.92;223767;1267;137824;-88
2023/07/29 13:53:44;;;;;;;8.10;2.50;;;;;;;29.35;55.67;99497.24;223201;1267;139495;-87
2023/07/29 13:58:44;;;;;;;4.70;2.10;;;;;;;29.36;56.24;99491.93;223734;1267;138372;-87
2023/07/29 14:03:45;;;;;;;5.10;1.70;;;;;;;29.05;53.62;99538.29;223236;1266;139430;-88
2023/07/29 14:08:45;;;;;;;6.10;2.00;;;;;;;27.75;57.87;99615.28;223749;1267;138776;-87
2023/07/29 14:13:46;;;;;;;9.00;2.00;;;;;;;26.03;63.30;99567.04;223345;1267;139364;-82
2023/07/29 14:18:46;;;;;;;5.40;1.70;;;;;;;25.33;66.63;99539.71;223726;1267;137875;-82
2023/07/29 14:23:47;;;;;;;5.80;1.90;;;;;;;25.09;69.93;99525.89;223188;1267;140802;-84
2023/07/29 14:28:47;;;;;;;6.40;2.00;;;;;;;25.18;72.53;99518.35;223566;1267;138350;-84
2023/07/29 14:33:49;;;;;;;5.30;2.80;;;;;;;25.33;73.39;99498.24;223207;1266;142652;-84
2023/07/29 14:38:49;;;;;;;7.50;2.20;;;;;;;25.40;74.90;99483.19;223720;1267;138610;-85
2023/07/29 14:43:50;;;;;;;5.50;2.40;;;;;;;25.39;75.98;99475.70;223269;1267;140450;-85
2023/07/29 14:48:50;;;;;;;4.00;2.10;;;;;;;25.49;77.07;99472.50;223722;1267;139812;-85
2023/07/29 14:53:50;;;;;;;4.20;2.00;;;;;;;25.55;77.12;99471.93;223167;1267;141469;-85
2023/07/29 14:58:51;;;;;;;4.50;2.20;;;;;;;25.54;77.65;99472.18;223701;1266;139573;-85
2023/07/29 15:03:52;;;;;;;7.90;2.80;;;;;;;25.50;79.71;99468.83;223119;1267;140756;-84
2023/07/29 15:08:52;;;;;;;6.20;3.10;;;;;;;25.47;81.67;99468.54;223723;1266;139377;-85
2023/07/29 15:13:52;;;;;;;6.30;3.10;;;;;;;25.35;83.75;99466.81;223206;1268;140869;-86
2023/07/29 15:18:53;;;;;;;7.20;3.00;;;;;;;25.22;83.99;99467.39;223676;1266;139043;-87
2023/07/29 15:23:53;;;;;;;5.80;3.00;;;;;;;25.04;85.03;99469.48;223164;1267;140652;-86
2023/07/29 15:28:54;;;;;;;7.80;3.30;;;;;;;24.87;86.53;99465.94;223736;1266;138672;-86
2023/07/29 15:33:54;;;;;;;6.50;3.20;;;;;;;24.83;86.26;99460.54;223198;1268;140421;-86
2023/07/29 15:38:55;;;;;;;5.70;3.20;;;;;;;24.73;87.57;99438.48;223721;1267;139319;-86
2023/07/29 15:43:55;;;;;;;8.50;2.90;;;;;;;24.66;88.12;99424.16;223441;1268;138303;-86
2023/07/29 15:48:59;;;;;;;7.60;3.10;;;;;;;24.65;88.71;99413.13;223161;1266;139973;-85
2023/07/29 15:53:59;;;;;;;8.80;4.30;;;;;;;24.52;90.39;99430.86;223642;1267;138518;-87
2023/07/29 15:59:00;;;;;;;8.30;3.50;;;;;;;24.30;92.58;99504.09;223215;1268;140478;-83
2023/07/29 16:04:00;;;;;;;7.80;2.70;;;;;;;23.58;88.55;99519.82;223726;1267;139137;-87
2023/07/29 16:09:05;;;;;;;6.70;2.80;;;;;;;22.83;90.30;99481.04;223167;1267;164272;-86
2023/07/29 16:14:06;;;;;;;6.60;2.90;;;;;;;22.33;94.53;99484.42;223773;1266;108297;-88
2023/07/29 16:19:08;;;;;;;6.20;3.30;;;;;;;21.84;96.94;99483.70;223173;1266;141360;-88
2023/07/29 16:24:09;;;;;;;6.20;2.10;;;;;;;21.49;96.01;99469.18;223718;1266;138595;-91
2023/07/29 16:29:09;;;;;;;4.60;1.70;;;;;;;21.33;94.31;99463.76;223177;1267;140345;-92
2023/07/29 16:34:10;;;;;;;4.60;1.70;;;;;;;21.14;96.53;99573.52;223732;1269;139658;-93
2023/07/29 16:39:10;;;;;;;2.00;1.10;;;;;;;20.97;96.02;99590.48;223155;1268;140697;-91
2023/07/29 16:44:10;;;;;;;4.90;1.10;;;;;;;20.79;95.75;99599.66;223776;1268;96082;-91
2023/07/29 16:49:13;;;;;;;4.20;1.60;;;;;;;20.66;96.25;99596.16;223129;1267;141647;-92
2023/07/29 16:54:17;;;;;;;3.70;1.70;;;;;;;20.57;96.64;99582.15;223735;1267;138732;-92
2023/07/29 16:59:18;;;;;;;4.60;1.30;;;;;;;20.37;97.65;99559.87;223108;1267;140780;-90
2023/07/29 17:04:18;;;;;;;8.70;2.60;;;;;;;20.21;98.27;99562.53;223643;1267;138873;-91
2023/07/29 17:09:19;;;;;;;6.80;2.00;;;;;;;20.11;99.03;99563.58;223202;1266;140964;-88
2023/07/29 17:14:19;;;;;;;4.20;1.70;;;;;;;20.10;98.82;99553.58;223856;1266;95879;-88
2023/07/29 17:19:19;;;;;;;4.10;2.10;;;;;;;20.18;99.20;99569.63;223186;1267;140671;-87
2023/07/29 17:24:20;;;;;;;7.30;2.20;;;;;;;20.22;99.05;99576.23;223700;1268;138736;-87
2023/07/29 17:29:20;;;;;;;5.70;2.10;;;;;;;20.22;99.10;99585.88;223168;1267;141550;-86
2023/07/29 17:34:21;;;;;;;5.80;2.00;;;;;;;20.23;99.01;99591.84;223725;1267;138622;-86
2023/07/29 17:39:22;;;;;;;4.00;1.80;;;;;;;20.21;99.56;99602.86;223158;1267;140634;-87
2023/07/29 17:44:22;;;;;;;6.70;2.10;;;;;;;20.19;99.75;99604.93;223833;1268;95888;-87
2023/07/29 17:49:23;;;;;;;3.90;1.80;;;;;;;20.17;99.85;99617.16;223139;1267;139038;-87
2023/07/29 17:54:23;;;;;;;5.40;1.80;;;;;;;20.19;99.76;99617.41;223669;1266;138797;-87
2023/07/29 17:59:24;;;;;;;5.40;2.50;;;;;;;20.20;99.39;99614.72;223164;1267;140731;-87
2023/07/29 18:04:24;;;;;;;5.80;2.10;;;;;;;20.19;99.84;99621.48;223682;1266;138846;-89
2023/07/29 18:09:25;;;;;;;5.10;2.20;;;;;;;20.17;99.87;99612.77;223144;1267;140336;-89
2023/07/29 18:14:25;;;;;;;6.40;2.60;;;;;;;20.15;99.99;99606.77;223796;1266;96013;-89
2023/07/29 18:19:29;;;;;;;5.00;2.00;;;;;;;20.13;100.00;99608.13;223155;1267;140822;-89
2023/07/29 18:24:30;;;;;;;7.50;2.30;;;;;;;20.12;99.88;99617.05;223637;1267;139560;-90
2023/07/29 18:29:32;;;;;;;8.20;2.40;;;;;;;20.08;100.00;99614.08;223090;1271;141788;-89
2023/07/29 18:34:32;;;;;;;12.50;4.20;;;;;;;20.04;100.00;99615.43;223670;1267;138815;-90
2023/07/29 18:39:33;;;;;;;9.40;3.40;;;;;;;20.04;100.00;99613.59;223162;1267;140611;-91
2023/07/29 18:44:33;;;;;;;8.50;3.60;;;;;;;19.95;100.00;99637.39;223803;1267;95807;-92
2023/07/29 18:49:34;;;;;;;11.20;3.70;;;;;;;19.86;100.00;99627.95;223159;1266;141022;-92
2023/07/29 18:54:36;;;;;;;12.10;3.20;;;;;;;19.77;100.00;99620.59;223675;1267;139503;-94
2023/07/29 18:59:37;;;;;;;8.30;3.40;;;;;;;19.67;100.00;99614.80;223206;1266;141123;-93
2023/07/29 19:04:38;;;;;;;9.20;4.00;;;;;;;19.58;100.00;99605.14;223707;1266;139064;-94
2023/07/29 19:09:45;;;;;;;8.50;4.20;;;;;;;19.51;100.00;99597.01;223092;1267;140783;-93
2023/07/29 19:14:46;;;;;;;7.80;3.80;;;;;;;19.44;100.00;99590.33;223635;1271;139008;-91
2023/07/29 19:19:47;;;;;;;10.30;6.10;;;;;;;19.37;100.00;99594.59;223228;1268;141648;-92
2023/07/29 19:24:47;;;;;;;13.30;4.60;;;;;;;19.33;100.00;99609.89;223657;1267;139285;-93
2023/07/29 19:29:48;;;;;;;11.50;4.20;;;;;;;19.30;100.00;99603.25;223152;1267;141105;-91
2023/07/29 19:34:55;;;;;;;8.90;4.20;;;;;;;19.25;100.00;99621.84;223674;1267;138972;-91
2023/07/29 19:39:56;;;;;;;10.90;4.30;;;;;;;19.18;100.00;99627.80;223086;1266;141938;-92
2023/07/29 19:44:56;;;;;;;8.30;4.00;;;;;;;19.12;100.00;99633.70;223690;1267;139657;-91
2023/07/29 19:49:57;;;;;;;11.70;4.30;;;;;;;19.03;100.00;99622.07;223247;1267;140952;-92
2023/07/29 19:54:57;;;;;;;7.90;4.00;;;;;;;18.94;100.00;99614.98;223612;1268;139555;-93
2023/07/29 19:59:58;;;;;;;10.60;4.20;;;;;;;18.88;100.00;99601.52;223167;1267;142361;-92
2023/07/29 20:04:58;;;;;;;10.80;4.00;;;;;;;18.81;100.00;99620.52;223699;1268;140637;-92
2023/07/29 20:09:59;;;;;;;7.70;3.60;;;;;;;18.78;100.00;99632.52;223156;1267;141351;-92
2023/07/29 20:15:00;;;;;;;9.20;3.80;;;;;;;18.74;100.00;99639.98;223665;1267;139579;-92
2023/07/29 20:20:01;;;;;;;8.40;4.20;;;;;;;18.69;100.00;99650.06;223250;1267;141180;-92
2023/07/29 20:25:01;;;;;;;12.10;3.90;;;;;;;18.64;100.00;99648.77;223656;1267;140035;-91
2023/07/29 20:30:02;;;;;;;11.40;3.60;;;;;;;18.58;100.00;99645.48;223163;1267;141454;-92
2023/07/29 20:35:03;;;;;;;7.40;3.80;;;;;;;18.51;100.00;99635.36;223694;1268;139438;-93
2023/07/29 20:40:05;;;;;;;9.60;3.70;;;;;;;18.48;100.00;99643.19;223167;1267;141873;-92
2023/07/29 20:45:06;;;;;;;7.40;3.80;;;;;;;18.40;100.00;99648.23;223640;1270;138804;-92
2023/07/29 20:50:07;;;;;;;6.90;3.30;;;;;;;18.36;100.00;99658.09;223304;1266;142010;-92
2023/07/29 20:55:08;;;;;;;9.40;3.70;;;;;;;18.33;100.00;99663.67;223732;1267;139217;-92
2023/07/29 21:00:10;;;;;;;8.70;3.40;;;;;;;18.32;100.00;99654.69;223168;1267;141485;-91
2023/07/29 21:05:10;;;;;;;6.60;3.10;;;;;;;18.30;100.00;99643.20;223712;1267;139493;-91
2023/07/29 21:10:11;;;;;;;6.30;3.20;;;;;;;18.28;100.00;99638.91;223116;1267;142287;-93
2023/07/29 21:15:11;;;;;;;7.40;3.20;;;;;;;18.28;100.00;99631.11;223712;1267;139865;-91
2023/07/29 21:20:12;;;;;;;8.10;3.80;;;;;;;18.27;100.00;99640.60;223254;1267;141223;-93
2023/07/29 21:25:12;;;;;;;7.80;3.90;;;;;;;18.28;100.00;99644.71;223694;1267;138871;-93
2023/07/29 21:30:12;;;;;;;8.40;3.80;;;;;;;18.27;100.00;99640.67;223194;1267;141035;-92
2023/07/29 21:35:13;;;;;;;6.80;3.50;;;;;;;18.25;100.00;99634.80;223706;1267;139154;-92
2023/07/29 21:40:16;;;;;;;13.70;3.90;;;;;;;18.21;100.00;99630.77;222959;1267;281665;-92
2023/07/29 21:45:17;;;;;;;7.50;3.60;;;;;;;18.20;100.00;99633.49;223599;1267;139532;-92
2023/07/29 21:50:18;;;;;;;13.20;3.90;;;;;;;18.16;100.00;99634.91;223295;1267;141138;-92
2023/07/29 21:55:18;;;;;;;7.90;3.90;;;;;;;18.12;100.00;99640.06;223682;1267;138852;-93
2023/07/29 22:00:20;;;;;;;9.30;4.40;;;;;;;18.11;100.00;99642.65;223184;1267;140865;-93
2023/07/29 22:05:20;;;;;;;12.60;6.10;;;;;;;18.09;100.00;99641.20;223703;1267;139170;-92
2023/07/29 22:10:21;;;;;;;10.50;4.80;;;;;;;18.07;100.00;99646.42;223139;1266;140821;-92
2023/07/29 22:15:21;;;;;;;9.80;5.10;;;;;;;18.03;100.00;99662.14;223676;1267;139155;-92
2023/07/29 22:20:22;;;;;;;15.10;8.40;;;;;;;18.01;100.00;99664.67;223179;1267;141244;-93
2023/07/29 22:25:23;;;;;;;10.30;6.30;;;;;;;18.01;100.00;99665.39;223620;1267;139136;-92
2023/07/29 22:30:23;;;;;;;12.90;7.10;;;;;;;17.98;100.00;99663.59;223128;1267;140566;-93
2023/07/29 22:35:24;;;;;;;12.10;6.60;;;;;;;17.97;100.00;99673.41;223723;1266;139770;-92
2023/07/29 22:40:24;;;;;;;12.60;6.80;;;;;;;17.96;100.00;99669.13;223144;1266;141765;-93
2023/07/29 22:45:24;;;;;;;12.60;7.00;;;;;;;17.96;100.00;99677.33;223660;1266;139184;-93
2023/07/29 22:50:25;;;;;;;10.40;6.30;;;;;;;17.96;100.00;99669.44;223229;1267;141879;-93